• Join FlightAware (Why Join?)
  • Login
  • US Flag 
12:04AM EDT


 

Airport Tracker/Info


-or-


 

Live Flight TrackerFlight Track Log ✈ FDX1732 ✈ 20-Apr-2012 ✈ KIAH - KELP

Flight Track Log - Related Links

Times and Time Zones

All times are in EDT time to prevent confusion due to time zone crossing. See the FDX1732 flight status page for this flight to view local times or setup timezone preferences in your user account.

Time Position Orientation Groundspeed Altitude Reporting Facility
EDT Latitude Longitude Course Direction KTS MPH feet Rate Location/Type
08:12AM 29.9706 -95.3533 178° South 155 178 900  Level Houston Center
08:13AM 29.9558 -95.3528 272° West 165 190 2,400 2,520 Climbing Houston Center
08:14AM 29.9581 -95.4222 284° West 259 298 4,500 2,760 Climbing Houston Center
08:15AM 29.9786 -95.5142 281° West 270 311 8,700 3,600 Climbing Houston Center
08:16AM 29.9944 -95.6106 281° West 286 329 12,200 4,080 Climbing Houston Center
08:18AM 30.0293 -95.8147 281° West 415 478 19,400 4,560 Climbing FlightAware ADS-B
08:18AM 30.0402 -95.8801 281° West 415 478 21,900 4,680 Climbing FlightAware ADS-B
08:18AM 30.0428 -95.8962 281° West 400 460 22,400 2,160 Climbing FlightAware ADS-B
08:19AM 30.0509 -95.9455 281° West 432 497 23,000 1,200 Climbing FlightAware ADS-B
08:19AM 30.0540 -95.9647 280° West 442 509 23,000 780 Level FlightAware ADS-B
08:19AM 30.0620 -96.0150 281° West 444 511 23,400 2,040 Climbing FlightAware ADS-B
08:19AM 30.0658 -96.0367 281° West 434 499 24,100 3,480 Climbing FlightAware ADS-B
08:20AM 30.0739 -96.0846 280° West 437 503 25,200 3,060 Climbing FlightAware ADS-B
08:20AM 30.0776 -96.1077 280° West 440 506 25,700 2,760 Climbing FlightAware ADS-B
08:20AM 30.0849 -96.1546 280° West 454 522 26,600 2,700 Climbing FlightAware ADS-B
08:20AM 30.0888 -96.1808 280° West 461 531 27,100 3,000 Climbing FlightAware ADS-B
08:21AM 30.0957 -96.2262 280° West 445 512 28,100 3,600 Climbing FlightAware ADS-B
08:21AM 30.0998 -96.2535 280° West 449 517 28,900 3,360 Climbing FlightAware ADS-B
08:21AM 30.1065 -96.2981 280° West 447 514 29,800 2,100 Climbing FlightAware ADS-B
08:21AM 30.1106 -96.3252 280° West 447 514 30,000 360 Climbing FlightAware ADS-B
08:22AM 30.1171 -96.3684 280° West 430 495 30,000  Level FlightAware ADS-B
08:22AM 30.1216 -96.3974 280° West 449 517 30,000  Level FlightAware ADS-B
08:22AM 30.1276 -96.4380 280° West 440 506 30,000  Level FlightAware ADS-B
08:22AM 30.1321 -96.4670 280° West 445 512 30,000  Level FlightAware ADS-B
08:23AM 30.1388 -96.5097 280° West 458 527 30,000  Level FlightAware ADS-B
08:23AM 30.1436 -96.5410 280° West 439 505 30,000  Level FlightAware ADS-B
08:23AM 30.1492 -96.5791 280° West 440 506 30,000  Level FlightAware ADS-B
08:23AM 30.1544 -96.6124 280° West 427 491 30,000  Level FlightAware ADS-B
08:24AM 30.1602 -96.6507 280° West 450 518 30,000  Level FlightAware ADS-B
08:24AM 30.1671 -96.6970 280° West 442 509 30,000  Level FlightAware ADS-B
08:24AM 30.1707 -96.7202 280° West 441 507 30,000  Level FlightAware ADS-B
08:24AM 30.1776 -96.7666 280° West 449 517 30,000  Level FlightAware ADS-B
08:25AM 30.1810 -96.7896 280° West 424 488 30,000  Level FlightAware ADS-B
08:25AM 30.1880 -96.8368 280° West 420 483 30,000  Level FlightAware ADS-B
08:25AM 30.1916 -96.8610 280° West 453 521 30,000  Level FlightAware ADS-B
08:25AM 30.1982 -96.9047 280° West 388 447 30,000  Level FlightAware ADS-B
08:26AM 30.2021 -96.9313 280° West 430 495 30,000  Level FlightAware ADS-B
08:26AM 30.2092 -96.9787 280° West 458 527 30,000  Level FlightAware ADS-B
08:26AM 30.2128 -97.0031 279° West 442 509 30,000  Level FlightAware ADS-B
08:26AM 30.2191 -97.0470 280° West 420 483 30,000  Level FlightAware ADS-B
08:27AM 30.2236 -97.0769 280° West 443 510 30,000  Level FlightAware ADS-B
08:27AM 30.2298 -97.1195 280° West 424 488 30,000  Level FlightAware ADS-B
08:27AM 30.2339 -97.1469 280° West 443 510 30,000  Level FlightAware ADS-B
08:27AM 30.2401 -97.1894 280° West 435 501 30,000  Level FlightAware ADS-B
08:28AM 30.2442 -97.2168 280° West 430 495 30,000  Level FlightAware ADS-B
08:28AM 30.2502 -97.2577 279° West 418 481 30,000  Level FlightAware ADS-B
08:28AM 30.2558 -97.2965 280° West 415 478 30,000  Level FlightAware ADS-B
08:28AM 30.2603 -97.3272 280° West 434 499 30,000  Level FlightAware ADS-B
08:29AM 30.2663 -97.3670 279° West 419 482 30,000  Level FlightAware ADS-B
08:29AM 30.2704 -97.3967 279° West 427 491 30,000  Level FlightAware ADS-B
08:29AM 30.2763 -97.4377 280° West 435 501 30,000  Level FlightAware ADS-B
08:29AM 30.2804 -97.4652 280° West 432 497 30,000  Level FlightAware ADS-B
08:30AM 30.2872 -97.5121 279° West 435 501 30,000  Level FlightAware ADS-B
08:30AM 30.2905 -97.5351 280° West 443 510 30,000  Level FlightAware ADS-B
08:30AM 30.2975 -97.5836 279° West 443 510 30,000  Level FlightAware ADS-B
08:30AM 30.3005 -97.6046 279° West 440 506 30,000  Level FlightAware ADS-B
08:31AM 30.3083 -97.6602 280° West 446 513 30,000  Level FlightAware ADS-B
08:31AM 30.3104 -97.6741 279° West 424 488 30,000  Level FlightAware ADS-B
08:31AM 30.3192 -97.7366 280° West 442 509 30,000  Level FlightAware ADS-B
08:31AM 30.3204 -97.7449 279° West 457 526 30,000  Level FlightAware ADS-B
08:32AM 30.3303 -97.8143 279° West 441 507 30,000  Level FlightAware ADS-B
08:32AM 30.3403 -97.8849 280° West 440 506 30,000  Level FlightAware ADS-B
08:33AM 30.3408 -97.8883 279° West 441 507 30,000  Level FlightAware ADS-B
08:33AM 30.3499 -97.9536 279° West 438 504 30,000  Level FlightAware ADS-B
08:33AM 30.3547 -97.9878 279° West 426 490 30,000  Level FlightAware ADS-B
08:34AM 30.3595 -98.0217 279° West 419 482 30,000  Level FlightAware ADS-B
08:34AM 30.3691 -98.0909 279° West 436 502 30,000  Level FlightAware ADS-B
08:34AM 30.3722 -98.1148 279° West 430 495 30,000  Level FlightAware ADS-B
08:35AM 30.3784 -98.1589 279° West 423 487 30,000  Level FlightAware ADS-B
08:35AM 30.3819 -98.1839 279° West 427 491 30,000  Level FlightAware ADS-B
08:35AM 30.3880 -98.2274 279° West 425 489 30,000  Level FlightAware ADS-B
08:35AM 30.3940 -98.2713 279° West 440 506 30,000  Level FlightAware ADS-B
08:36AM 30.3975 -98.2969 279° West 431 496 30,000  Level FlightAware ADS-B
08:36AM 30.4071 -98.3678 279° West 439 505 30,000  Level FlightAware ADS-B
08:36AM 30.4158 -98.4296 278° West 445 512 30,000  Level FlightAware ADS-B
08:37AM 30.4168 -98.4377 279° West 431 496 30,000  Level FlightAware ADS-B
08:37AM 30.4266 -98.5089 279° West 442 509 30,000  Level FlightAware ADS-B
08:38AM 30.4361 -98.5798 279° West 452 520 30,000  Level FlightAware ADS-B
08:38AM 30.4453 -98.6488 279° West 434 499 30,000  Level FlightAware ADS-B
08:39AM 30.4552 -98.7202 279° West 448 516 30,000  Level FlightAware ADS-B
08:39AM 30.4644 -98.7903 279° West 434 499 30,000  Level FlightAware ADS-B
08:40AM 30.4737 -98.8588 279° West 432 497 30,000  Level FlightAware ADS-B
08:40AM 30.4830 -98.9279 279° West 437 503 30,000  Level FlightAware ADS-B
08:41AM 30.4924 -98.9988 279° West 440 506 30,000  Level FlightAware ADS-B
08:41AM 30.5016 -99.0704 279° West 442 509 30,000  Level FlightAware ADS-B
08:42AM 30.5108 -99.1408 279° West 447 514 30,000  Level FlightAware ADS-B
08:42AM 30.5200 -99.2110 279° West 446 513 30,000  Level FlightAware ADS-B
08:43AM 30.5293 -99.2819 279° West 437 503 30,000  Level FlightAware ADS-B
08:43AM 30.5375 -99.3434 278° West 407 468 30,000  Level FlightAware ADS-B
08:44AM 30.5480 -99.4254 278° West 451 519 30,000  Level FlightAware ADS-B
08:44AM 30.5569 -99.4949 278° West 435 501 30,000  Level FlightAware ADS-B
08:45AM 30.5657 -99.5648 278° West 435 501 30,000  Level FlightAware ADS-B
08:45AM 30.5750 -99.6386 278° West 428 493 30,000  Level FlightAware ADS-B
08:46AM 30.5842 -99.7114 278° West 426 490 30,000  Level FlightAware ADS-B
08:46AM 30.5935 -99.7842 278° West 441 507 30,000  Level FlightAware ADS-B
08:47AM 30.6026 -99.8566 278° West 463 533 30,000  Level FlightAware ADS-B
08:47AM 30.6117 -99.9302 278° West 452 520 30,000  Level FlightAware ADS-B
08:48AM 30.6204 -100.0010 272° West 446 513 30,000  Level FlightAware ADS-B
08:48AM 30.6229 -100.0720 264° West 443 510 30,000  Level FlightAware ADS-B
08:49AM 30.6165 -100.1410 261° West 427 491 30,000  Level FlightAware ADS-B
08:49AM 30.6070 -100.2140 262° West 436 502 30,000  Level FlightAware ADS-B
08:50AM 30.5976 -100.2870 262° West 452 520 30,000  Level FlightAware ADS-B
08:50AM 30.5882 -100.3600 262° West 447 514 30,000  Level FlightAware ADS-B
08:51AM 30.5789 -100.4330 261° West 475 547 30,000  Level FlightAware ADS-B
08:51AM 30.5691 -100.5070 266° West 452 520 30,000  Level FlightAware ADS-B
08:52AM 30.5641 -100.5810 271° West 467 537 30,000  Level FlightAware ADS-B
08:52AM 30.5648 -100.6510 271° West 414 476 30,000  Level FlightAware ADS-B
08:53AM 30.5654 -100.7230 275° West 438 504 30,000  Level FlightAware ADS-B
08:53AM 30.5706 -100.7940 281° West 433 498 30,000  Level FlightAware ADS-B
08:54AM 30.5817 -100.8630 281° West 445 512 30,000  Level FlightAware ADS-B
08:54AM 30.5928 -100.9300 283° West 400 460 30,000  Level FlightAware ADS-B
08:55AM 30.6071 -101.0040 286° West 389 448 30,000  Level FlightAware ADS-B
08:55AM 30.6247 -101.0750 286° West 434 499 30,000  Level FlightAware ADS-B
08:56AM 30.6424 -101.1460 286° West 465 535 30,000  Level FlightAware ADS-B
08:56AM 30.6586 -101.2110 287° West 413 475 30,000 -120 Level FlightAware ADS-B
08:57AM 30.6742 -101.2689 285° West 435 501 29,900 -120 Descending Houston Center
08:58AM 30.7042 -101.3994 287° West 429 494 29,900  Level Houston Center
08:59AM 30.7383 -101.5331 285° West 429 494 30,000  Climbing Houston Center
09:00AM 30.7681 -101.6661 285° West 429 494 30,000  Level Houston Center
09:01AM 30.7997 -101.7994 286° West 429 494 30,000  Level Houston Center
09:03AM 30.8789 -102.1139 285° West 429 494 30,000  Level Albuquerque Center
09:04AM 30.9100 -102.2522 286° West 434 499 30,000  Level Albuquerque Center
09:05AM 30.9425 -102.3858 285° West 434 499 30,000  Level Albuquerque Center
09:06AM 30.9706 -102.5075 286° West 434 499 30,000  Level Albuquerque Center
09:07AM 31.0031 -102.6436 284° West 434 499 30,000 -60 Level Albuquerque Center
09:08AM 31.0333 -102.7825 286° West 434 499 29,900  Descending Albuquerque Center
09:09AM 31.0656 -102.9164 285° West 429 494 30,000  Climbing Albuquerque Center
09:10AM 31.0953 -103.0506 283° West 434 499 30,000  Level Albuquerque Center
09:11AM 31.1233 -103.1894 281° West 439 505 30,000  Level Albuquerque Center
09:12AM 31.1467 -103.3289 281° West 439 505 30,000 -60 Level Albuquerque Center
09:13AM 31.1700 -103.4636 280° West 439 505 29,900  Descending Albuquerque Center
09:14AM 31.1908 -103.5986 280° West 439 505 30,000  Climbing Albuquerque Center
09:15AM 31.2117 -103.7358 282° West 439 505 30,000  Level Albuquerque Center
09:16AM 31.2392 -103.8828 281° West 434 499 30,000  Level Albuquerque Center
09:17AM 31.2617 -104.0178 281° West 427 491 30,000  Level Albuquerque Center
09:18AM 31.2839 -104.1503 280° West 427 491 30,000  Level Albuquerque Center
09:19AM 31.3042 -104.2881 280° West 427 491 30,000  Level Albuquerque Center
09:20AM 31.3244 -104.4256 282° West 427 491 30,000  Level Albuquerque Center
09:21AM 31.3486 -104.5633 279° West 427 491 30,000 -60 Level Albuquerque Center
09:22AM 31.3683 -104.7058 281° West 432 497 29,900  Descending Albuquerque Center
09:23AM 31.3903 -104.8439 279° West 432 497 30,000  Climbing Albuquerque Center
09:24AM 31.4097 -104.9842 280° West 437 503 30,000 -300 Level Albuquerque Center
09:25AM 31.4311 -105.1222 276° West 437 503 29,400 -1,440 Descending Albuquerque Center
09:26AM 31.4417 -105.2411 261° West 432 497 27,200 -2,040 Descending Albuquerque Center
09:27AM 31.4250 -105.3653 270° West 405 466 25,400 -2,520 Descending Albuquerque Center
09:28AM 31.4247 -105.4772 282° West 378 435 22,200 -3,300 Descending Albuquerque Center
09:29AM 31.4383 -105.5547 284° West 330 380 20,000 -2,340 Descending Albuquerque Center
09:30AM 31.4586 -105.6539 285° West 318 366 18,300 -2,040 Descending Albuquerque Center
09:31AM 31.4786 -105.7436 286° West 303 349 16,200 -2,280 Descending Albuquerque Center
09:32AM 31.5006 -105.8308 288° West 289 333 14,000 -2,280 Descending Albuquerque Center
09:33AM 31.5247 -105.9206 286° West 283 326 11,600 -2,220 Descending Albuquerque Center
09:34AM 31.5486 -106.0197 286° West 281 323 9,400 -1,380 Descending Albuquerque Center
09:35AM 31.5706 -106.1072 287° West 279 321 8,700 -1,020 Descending Albuquerque Center
09:36AM 31.5922 -106.1897 286° West 277 319 7,500 -660 Descending Albuquerque Center
09:37AM 31.6117 -106.2675 281° West 248 285 7,500  Level Albuquerque Center
09:38AM 31.6228 -106.3353 285° West 239 275 7,500  Level Albuquerque Center
09:39AM 31.6378 -106.4011 306° West 204 235 7,500  Level Albuquerque Center
09:40AM 31.6736 -106.4592 332° Northwest 194 223 7,500 -420 Level Albuquerque Center
09:41AM 31.7156 -106.4856 21° North 158 182 6,700 -900 Descending Albuquerque Center
09:42AM 31.7489 -106.4706 48° Northeast 134 154 5,800 -960 Descending Albuquerque Center
09:43AM 31.7717 -106.4411 51° Northeast 121 139 4,800 -900 Descending Albuquerque Center
09:44AM 31.7922 -106.4117 51° Northeast 117 135 4,100 -720 Descending Albuquerque Center